createdAt,value
2018-11-05T00:00:59.131Z,7.49
2018-11-05T00:03:29.798Z,7.40
2018-11-05T00:06:00.431Z,7.41
2018-11-05T00:08:31.070Z,7.44
2018-11-05T00:11:01.750Z,7.54
2018-11-05T00:13:32.412Z,7.56
2018-11-05T00:16:03.035Z,7.42
2018-11-05T00:18:33.712Z,7.45
2018-11-05T00:21:04.354Z,7.31
2018-11-05T00:23:34.975Z,7.33
2018-11-05T00:26:06.261Z,7.21
2018-11-05T00:28:36.888Z,7.15
2018-11-05T00:31:07.513Z,7.11
2018-11-05T00:33:38.220Z,7.09
2018-11-05T00:36:08.908Z,7.05
2018-11-05T00:38:39.580Z,7.00
2018-11-05T00:41:10.272Z,6.91
2018-11-05T00:43:40.920Z,6.78
2018-11-05T00:46:11.522Z,6.73
2018-11-05T00:48:42.183Z,6.65
2018-11-05T00:51:12.852Z,6.65
2018-11-05T00:53:43.525Z,6.54
2018-11-05T00:56:14.126Z,6.48
2018-11-05T00:58:44.787Z,6.46
2018-11-05T01:01:15.438Z,6.42
2018-11-05T01:03:46.101Z,6.47
2018-11-05T01:06:16.781Z,6.40
2018-11-05T01:08:47.396Z,6.42
2018-11-05T01:11:18.087Z,6.39
2018-11-05T01:13:48.747Z,6.41
2018-11-05T01:16:19.428Z,6.48
2018-11-05T01:18:50.066Z,6.43
2018-11-05T01:21:20.688Z,6.36
2018-11-05T01:23:51.342Z,6.38
2018-11-05T01:26:21.938Z,6.27
2018-11-05T01:28:52.620Z,6.22
2018-11-05T01:31:23.266Z,6.25
2018-11-05T01:33:53.882Z,6.30
2018-11-05T01:36:24.561Z,6.28
2018-11-05T01:38:55.198Z,6.29
2018-11-05T01:41:25.872Z,6.38
2018-11-05T01:43:56.522Z,6.42
2018-11-05T01:46:27.181Z,6.35
2018-11-05T01:48:57.844Z,6.35
2018-11-05T01:51:28.498Z,6.38
2018-11-05T01:53:59.111Z,6.30
2018-11-05T01:56:29.802Z,6.33
2018-11-05T01:59:00.458Z,6.30
2018-11-05T02:01:31.108Z,6.26
2018-11-05T02:04:01.732Z,6.24
2018-11-05T02:06:32.368Z,6.13
2018-11-05T02:09:09.994Z,6.12
2018-11-05T02:11:40.695Z,6.10
2018-11-05T02:14:11.351Z,6.12
2018-11-05T02:16:42.217Z,6.00
2018-11-05T02:19:12.892Z,5.95
2018-11-05T02:21:43.591Z,5.89
2018-11-05T02:24:14.488Z,5.87
2018-11-05T02:26:45.135Z,5.88
2018-11-05T02:29:15.739Z,5.85
2018-11-05T02:31:46.436Z,5.92
2018-11-05T02:34:17.144Z,5.88
2018-11-05T02:36:47.754Z,5.87
2018-11-05T02:39:18.430Z,5.89
2018-11-05T02:41:49.127Z,5.86
2018-11-05T02:44:19.755Z,5.84
2018-11-05T02:46:50.446Z,5.90
2018-11-05T02:49:21.096Z,5.91
2018-11-05T02:51:51.746Z,5.98
2018-11-05T02:54:22.394Z,5.92
2018-11-05T02:56:53.059Z,5.90
2018-11-05T02:59:23.694Z,5.95
2018-11-05T03:01:54.302Z,5.84
2018-11-05T03:04:25.201Z,5.86
2018-11-05T03:06:55.795Z,5.83
2018-11-05T03:09:26.427Z,5.81
2018-11-05T03:11:57.077Z,5.81
2018-11-05T03:14:27.685Z,5.84
2018-11-05T03:16:58.273Z,5.87
2018-11-05T03:19:28.857Z,5.91
2018-11-05T03:21:59.492Z,5.92
2018-11-05T03:24:30.218Z,5.93
2018-11-05T03:27:00.831Z,5.94
2018-11-05T03:29:31.468Z,5.92
2018-11-05T03:32:02.080Z,6.00
2018-11-05T03:34:32.742Z,5.90
2018-11-05T03:37:03.381Z,5.87
2018-11-05T03:39:34.088Z,5.89
2018-11-05T03:42:04.821Z,5.91
2018-11-05T03:44:35.474Z,5.87
2018-11-05T03:47:06.783Z,5.86
2018-11-05T03:49:37.444Z,5.84
2018-11-05T03:52:08.133Z,5.88
2018-11-05T03:54:38.869Z,5.90
2018-11-05T03:57:09.559Z,5.91
2018-11-05T03:59:40.190Z,6.01
2018-11-05T04:02:10.812Z,5.95
2018-11-05T04:04:41.433Z,6.03
2018-11-05T04:07:12.249Z,5.86
2018-11-05T04:09:42.908Z,5.79
2018-11-05T04:12:13.586Z,5.76
2018-11-05T04:14:44.268Z,5.74
2018-11-05T04:17:14.889Z,5.75
2018-11-05T04:19:45.574Z,5.78
2018-11-05T04:22:16.243Z,5.80
2018-11-05T04:24:46.840Z,5.83
2018-11-05T04:27:17.483Z,5.85
2018-11-05T04:29:48.211Z,5.90
2018-11-05T04:32:18.816Z,5.92
2018-11-05T04:34:49.547Z,5.87
2018-11-05T04:37:20.163Z,5.82
2018-11-05T04:39:50.819Z,5.83
2018-11-05T04:42:21.499Z,5.85
2018-11-05T04:44:52.177Z,5.83
2018-11-05T04:47:22.791Z,5.85
2018-11-05T04:49:53.412Z,5.91
2018-11-05T04:52:24.105Z,5.88
2018-11-05T04:54:54.796Z,5.90
2018-11-05T04:57:25.462Z,5.95
2018-11-05T04:59:56.104Z,6.01
2018-11-05T05:02:26.735Z,5.92
2018-11-05T05:04:57.380Z,5.88
2018-11-05T05:07:28.040Z,5.92
2018-11-05T05:09:58.756Z,5.91
2018-11-05T05:12:29.365Z,5.84
2018-11-05T05:15:00.021Z,5.81
2018-11-05T05:17:30.687Z,5.78
2018-11-05T05:20:01.388Z,5.76
2018-11-05T05:22:32.122Z,5.74
2018-11-05T05:25:02.741Z,5.75
2018-11-05T05:27:33.366Z,5.71
2018-11-05T05:30:04.160Z,5.71
2018-11-05T05:32:34.797Z,5.67
2018-11-05T05:35:05.802Z,5.65
2018-11-05T05:37:36.439Z,5.63
2018-11-05T05:40:08.264Z,5.62
2018-11-05T05:42:39.870Z,5.57
2018-11-05T05:45:11.737Z,5.56
2018-11-05T05:47:43.121Z,5.51
2018-11-05T05:50:16.814Z,5.50
2018-11-05T05:52:48.881Z,5.49
2018-11-05T05:55:19.560Z,5.49
2018-11-05T05:57:50.229Z,5.48
2018-11-05T06:00:20.883Z,5.46
2018-11-05T06:02:51.534Z,5.48
2018-11-05T06:05:22.134Z,5.46
2018-11-05T06:07:52.818Z,5.43
2018-11-05T06:10:23.495Z,5.41
2018-11-05T06:12:54.078Z,5.39
2018-11-05T06:15:24.723Z,5.34
2018-11-05T06:17:55.360Z,5.30
2018-11-05T06:20:25.971Z,5.28
2018-11-05T06:22:56.618Z,5.24
2018-11-05T06:25:27.284Z,5.18
2018-11-05T06:27:57.954Z,5.16
2018-11-05T06:30:28.605Z,5.16
2018-11-05T06:32:59.267Z,5.26
2018-11-05T06:35:30.076Z,5.20
2018-11-05T06:38:00.619Z,5.17
2018-11-05T06:40:31.270Z,5.30
2018-11-05T06:43:01.940Z,5.24
2018-11-05T06:45:32.609Z,5.31
2018-11-05T06:48:03.225Z,5.33
2018-11-05T06:50:33.847Z,5.37
2018-11-05T06:53:04.491Z,5.38
2018-11-05T06:55:35.222Z,5.41
2018-11-05T06:58:05.938Z,5.44
2018-11-05T07:00:36.601Z,5.60
2018-11-05T07:03:07.355Z,5.69
2018-11-05T07:05:38.092Z,5.69
2018-11-05T07:08:08.710Z,5.74
2018-11-05T07:10:39.339Z,5.90
2018-11-05T07:13:09.960Z,6.08
2018-11-05T07:15:40.687Z,6.24
2018-11-05T07:18:11.343Z,6.39
2018-11-05T07:20:41.982Z,6.53
2018-11-05T07:23:12.570Z,6.76
2018-11-05T07:25:43.195Z,6.96
2018-11-05T07:28:13.875Z,7.34
2018-11-05T07:30:44.560Z,8.11
2018-11-05T07:33:15.261Z,9.37
2018-11-05T07:35:45.936Z,10.78
2018-11-05T07:38:16.599Z,12.11
2018-11-05T07:40:47.255Z,13.36
2018-11-05T07:43:17.976Z,14.42
2018-11-05T07:45:48.682Z,15.32
2018-11-05T07:48:19.352Z,15.96
2018-11-05T07:50:50.064Z,16.66
2018-11-05T07:53:20.858Z,16.98
2018-11-05T07:55:51.544Z,17.37
2018-11-05T07:58:22.199Z,17.89
2018-11-05T08:00:57.759Z,17.31
2018-11-05T08:03:28.761Z,15.70
2018-11-05T08:05:59.491Z,13.76
2018-11-05T08:08:30.229Z,12.18
2018-11-05T08:11:00.894Z,11.18
2018-11-05T08:13:31.595Z,10.78
2018-11-05T08:16:02.342Z,11.03
2018-11-05T08:18:33.006Z,11.43
2018-11-05T08:21:03.664Z,11.76
2018-11-05T08:23:34.306Z,11.98
2018-11-05T08:26:05.324Z,11.99
2018-11-05T08:28:35.950Z,11.86
2018-11-05T08:31:07.432Z,12.24
2018-11-05T08:33:38.095Z,12.17
2018-11-05T08:36:08.712Z,11.94
2018-11-05T08:38:39.403Z,11.56
2018-11-05T08:41:10.101Z,11.43
2018-11-05T08:43:40.771Z,11.30
2018-11-05T08:46:11.469Z,11.23
2018-11-05T08:48:42.092Z,11.13
2018-11-05T08:51:12.913Z,10.94
2018-11-05T08:53:43.412Z,10.67
2018-11-05T08:56:14.079Z,10.52
2018-11-05T08:58:44.715Z,10.44
2018-11-05T09:01:17.841Z,10.43
2018-11-05T09:03:50.351Z,10.44
2018-11-05T09:06:21.035Z,10.51
2018-11-05T09:08:51.682Z,10.50
2018-11-05T09:11:22.639Z,10.54
2018-11-05T09:13:53.000Z,10.64
2018-11-05T09:16:23.685Z,10.72
2018-11-05T09:18:54.338Z,10.74
2018-11-05T09:21:25.019Z,10.77
2018-11-05T09:23:55.705Z,10.80
2018-11-05T09:26:26.362Z,10.92
2018-11-05T09:28:57.000Z,10.88
2018-11-05T09:31:27.668Z,10.84
2018-11-05T09:33:58.343Z,10.88
2018-11-05T09:36:28.964Z,10.93
2018-11-05T09:38:59.628Z,10.98
2018-11-05T09:41:30.295Z,10.98
2018-11-05T09:44:00.928Z,10.82
2018-11-05T09:46:34.565Z,10.76
2018-11-05T09:49:05.768Z,10.65
2018-11-05T09:51:36.417Z,10.68
2018-11-05T09:54:07.383Z,10.76
2018-11-05T09:56:38.039Z,10.81
2018-11-05T09:59:08.706Z,10.86
2018-11-05T10:01:39.443Z,10.94
2018-11-05T10:04:10.204Z,10.96
2018-11-05T10:06:40.781Z,11.03
2018-11-05T10:09:12.659Z,11.14
2018-11-05T10:11:43.273Z,11.13
2018-11-05T10:14:13.969Z,11.11
2018-11-05T10:16:44.629Z,11.07
2018-11-05T10:19:15.300Z,11.08
2018-11-05T10:21:45.959Z,11.10
2018-11-05T10:24:16.711Z,11.29
2018-11-05T10:26:47.400Z,11.23
2018-11-05T10:29:18.142Z,11.17
2018-11-05T10:31:48.806Z,11.20
2018-11-05T10:34:19.495Z,11.27
2018-11-05T10:36:50.195Z,11.35
2018-11-05T10:39:20.820Z,11.44
2018-11-05T10:41:51.511Z,11.56
2018-11-05T10:44:22.158Z,11.57
2018-11-05T10:46:52.809Z,11.64
2018-11-05T10:49:23.527Z,11.71
2018-11-05T10:51:54.234Z,11.76
2018-11-05T10:54:24.828Z,11.73
2018-11-05T10:56:55.597Z,11.76
2018-11-05T10:59:26.212Z,11.82
2018-11-05T11:02:02.081Z,11.87
2018-11-05T11:04:33.450Z,11.97
2018-11-05T11:07:04.674Z,12.16
2018-11-05T11:09:35.396Z,12.20
2018-11-05T11:12:06.487Z,12.24
2018-11-05T11:14:37.182Z,12.28
2018-11-05T11:17:07.898Z,12.31
2018-11-05T11:19:38.490Z,12.39
2018-11-05T11:22:09.257Z,12.46
2018-11-05T11:24:39.858Z,12.56
2018-11-05T11:27:10.555Z,12.71
2018-11-05T11:29:41.198Z,12.88
2018-11-05T11:32:11.852Z,13.07
2018-11-05T11:34:42.523Z,13.27
2018-11-05T11:37:13.219Z,13.52
2018-11-05T11:39:43.825Z,13.66
2018-11-05T11:42:14.461Z,13.73
2018-11-05T11:44:45.085Z,13.76
2018-11-05T11:47:15.668Z,13.73
2018-11-05T11:49:46.305Z,13.79
2018-11-05T11:52:16.961Z,13.93
2018-11-05T11:54:47.845Z,14.00
2018-11-05T11:57:18.523Z,14.18
2018-11-05T11:59:49.269Z,14.35
2018-11-05T12:02:19.931Z,14.45
2018-11-05T12:04:50.676Z,14.58
2018-11-05T12:07:21.181Z,14.62
2018-11-05T12:09:51.910Z,14.76
2018-11-05T12:12:22.557Z,14.94
2018-11-05T12:14:53.424Z,15.29
2018-11-05T12:17:23.979Z,16.04
2018-11-05T12:19:54.641Z,16.73
2018-11-05T12:22:25.328Z,17.17
2018-11-05T12:24:56.106Z,17.28
2018-11-05T12:27:26.650Z,17.55
2018-11-05T12:29:57.334Z,17.77
2018-11-05T12:32:27.973Z,18.04
2018-11-05T12:34:58.626Z,18.27
2018-11-05T12:37:29.286Z,18.66
2018-11-05T12:39:59.900Z,19.00
2018-11-05T12:42:30.556Z,19.02
2018-11-05T12:45:01.214Z,18.80
2018-11-05T12:47:31.947Z,18.95
2018-11-05T12:50:03.257Z,19.29
2018-11-05T12:52:33.943Z,19.49
2018-11-05T12:55:04.702Z,19.56
2018-11-05T12:57:35.334Z,19.78
2018-11-05T13:00:09.263Z,19.31
2018-11-05T13:02:39.879Z,19.34
2018-11-05T13:05:11.956Z,19.67
2018-11-05T13:07:42.683Z,19.95
2018-11-05T13:10:14.204Z,20.20
2018-11-05T13:12:44.955Z,20.24
2018-11-05T13:15:15.701Z,20.09
2018-11-05T13:17:46.324Z,20.08
2018-11-05T13:20:18.191Z,20.12
2018-11-05T13:22:49.277Z,19.95
2018-11-05T13:25:19.993Z,19.93
2018-11-05T13:27:51.553Z,20.00
2018-11-05T13:30:22.225Z,20.25
2018-11-05T13:32:52.888Z,20.33
2018-11-05T13:35:23.505Z,20.00
2018-11-05T13:37:54.731Z,19.71
2018-11-05T13:40:24.906Z,19.45
2018-11-05T13:42:55.548Z,19.00
2018-11-05T13:45:26.399Z,18.70
2018-11-05T13:47:57.266Z,18.57
2018-11-05T13:50:28.051Z,18.64
2018-11-05T13:52:58.297Z,18.77
2018-11-05T13:55:28.980Z,18.69
2018-11-05T13:57:59.639Z,18.87
2018-11-05T14:00:30.336Z,19.13
2018-11-05T14:03:01.039Z,19.38
2018-11-05T14:05:31.749Z,19.61
2018-11-05T14:08:02.540Z,19.56
2018-11-05T14:10:33.178Z,19.31
2018-11-05T14:13:03.865Z,19.22
2018-11-05T14:15:34.590Z,19.17
2018-11-05T14:18:05.328Z,18.96
2018-11-05T14:20:36.014Z,18.65
2018-11-05T14:23:06.908Z,18.27
2018-11-05T14:25:37.636Z,17.89
2018-11-05T14:28:08.713Z,17.47
2018-11-05T14:30:38.976Z,17.05
2018-11-05T14:33:09.689Z,16.80
2018-11-05T14:35:40.368Z,16.53
2018-11-05T14:38:11.127Z,16.30
2018-11-05T14:40:41.742Z,16.10
2018-11-05T14:43:12.465Z,15.94
2018-11-05T14:45:43.065Z,15.74
2018-11-05T14:48:13.752Z,15.52
2018-11-05T14:50:44.541Z,15.44
2018-11-05T14:53:15.116Z,15.38
2018-11-05T14:55:52.260Z,15.29
2018-11-05T14:58:22.990Z,15.11
2018-11-05T15:00:53.575Z,14.96
2018-11-05T15:03:24.209Z,14.83
2018-11-05T15:05:54.951Z,14.75
2018-11-05T15:08:25.633Z,14.62
2018-11-05T15:10:56.321Z,14.51
2018-11-05T15:13:27.001Z,14.31
2018-11-05T15:15:57.650Z,14.23
2018-11-05T15:18:28.569Z,14.12
2018-11-05T15:20:59.145Z,13.94
2018-11-05T15:23:29.758Z,13.75
2018-11-05T15:26:00.508Z,13.61
2018-11-05T15:28:31.116Z,13.50
2018-11-05T15:31:01.795Z,13.42
2018-11-05T15:33:47.176Z,13.34
2018-11-05T15:36:17.849Z,13.15
2018-11-05T15:38:48.483Z,13.05
2018-11-05T15:41:19.142Z,12.92
2018-11-05T15:44:04.752Z,12.92
2018-11-05T15:46:35.472Z,12.86
2018-11-05T15:49:06.204Z,12.91
2018-11-05T15:51:37.049Z,12.77
2018-11-05T15:54:07.759Z,12.73
2018-11-05T15:56:38.417Z,12.61
2018-11-05T15:59:09.646Z,12.53
2018-11-05T16:01:40.417Z,12.43
2018-11-05T16:04:11.335Z,12.33
2018-11-05T16:06:42.112Z,12.23
2018-11-05T16:09:12.896Z,12.24
2018-11-05T16:11:43.788Z,12.15
2018-11-05T16:14:14.600Z,12.13
2018-11-05T16:16:45.344Z,12.13
2018-11-05T16:19:16.180Z,12.08
2018-11-05T16:21:46.967Z,12.07
2018-11-05T16:24:18.010Z,12.02
2018-11-05T16:26:48.951Z,12.00
2018-11-05T16:29:19.598Z,12.02
2018-11-05T16:31:50.567Z,12.04
2018-11-05T16:34:21.312Z,11.96
2018-11-05T16:36:52.170Z,11.81
2018-11-05T16:39:22.981Z,11.81
2018-11-05T16:41:54.116Z,11.73
2018-11-05T16:44:24.847Z,11.71
2018-11-05T16:46:55.492Z,11.76
2018-11-05T16:49:26.124Z,11.75
2018-11-05T16:51:56.871Z,11.78
2018-11-05T16:54:27.533Z,11.70
2018-11-05T16:56:58.207Z,11.67
2018-11-05T16:59:28.827Z,11.71
2018-11-05T17:01:59.915Z,11.65
2018-11-05T17:04:30.205Z,11.61
2018-11-05T17:07:00.892Z,11.57
2018-11-05T17:09:31.513Z,11.61
2018-11-05T17:12:02.248Z,11.61
2018-11-05T17:14:32.996Z,11.56
2018-11-05T17:17:03.715Z,11.57
2018-11-05T17:19:34.522Z,11.56
2018-11-05T17:22:05.296Z,11.53
2018-11-05T17:24:35.934Z,11.54
2018-11-05T17:27:06.907Z,11.47
2018-11-05T17:29:37.601Z,11.42
2018-11-05T17:32:08.288Z,11.38
2018-11-05T17:34:38.960Z,11.36
2018-11-05T17:37:09.639Z,11.34
2018-11-05T17:39:40.363Z,11.39
2018-11-05T17:42:11.246Z,11.46
2018-11-05T17:44:41.944Z,11.41
2018-11-05T17:47:12.601Z,11.37
2018-11-05T17:49:43.273Z,11.37
2018-11-05T17:52:14.049Z,11.31
2018-11-05T17:54:44.729Z,11.27
2018-11-05T17:57:15.459Z,11.22
2018-11-05T17:59:46.129Z,11.19
2018-11-05T18:02:22.481Z,11.18
2018-11-05T18:04:54.953Z,11.13
2018-11-05T18:07:26.175Z,11.07
2018-11-05T18:09:56.936Z,11.08
2018-11-05T18:12:27.686Z,11.04
2018-11-05T18:14:58.345Z,11.02
2018-11-05T18:17:29.109Z,10.98
2018-11-05T18:19:59.779Z,10.97
2018-11-05T18:22:30.503Z,10.94
2018-11-05T18:25:01.207Z,10.91
2018-11-05T18:27:31.812Z,10.86
2018-11-05T18:30:02.502Z,10.84
2018-11-05T18:32:33.220Z,10.87
2018-11-05T18:35:03.945Z,10.83
2018-11-05T18:37:34.658Z,10.78
2018-11-05T18:40:08.058Z,10.74
2018-11-05T18:42:39.189Z,10.74
2018-11-05T18:45:13.360Z,10.69
2018-11-05T18:47:44.312Z,10.67
2018-11-05T18:50:16.013Z,10.66
2018-11-05T18:52:46.650Z,10.62
2018-11-05T18:55:18.148Z,10.59
2018-11-05T18:57:50.041Z,10.56
2018-11-05T19:00:26.955Z,10.52
2018-11-05T19:02:58.532Z,10.48
2018-11-05T19:05:30.752Z,10.48
2018-11-05T19:08:01.460Z,10.47
2018-11-05T19:10:32.073Z,10.44
2018-11-05T19:13:02.749Z,10.43
2018-11-05T19:15:33.348Z,10.44
2018-11-05T19:18:04.065Z,10.44
2018-11-05T19:20:34.746Z,10.45
2018-11-05T19:23:05.571Z,10.52
2018-11-05T19:25:36.280Z,10.57
2018-11-05T19:28:07.252Z,10.62
2018-11-05T19:30:38.462Z,10.58
2018-11-05T19:33:09.272Z,10.61
2018-11-05T19:35:39.960Z,10.82
2018-11-05T19:38:10.630Z,10.85
2018-11-05T19:40:41.332Z,10.82
2018-11-05T19:43:12.101Z,10.75
2018-11-05T19:45:42.821Z,10.72
2018-11-05T19:48:13.516Z,10.71
2018-11-05T19:50:44.313Z,10.72
2018-11-05T19:53:15.046Z,10.77
2018-11-05T19:55:45.809Z,10.85
2018-11-05T19:58:16.525Z,10.80
2018-11-05T20:00:47.383Z,10.72
2018-11-05T20:03:18.016Z,10.71
2018-11-05T20:05:48.792Z,10.66
2018-11-05T20:08:19.495Z,10.63
2018-11-05T20:10:50.226Z,10.57
2018-11-05T20:13:20.975Z,10.54
2018-11-05T20:15:51.675Z,10.58
2018-11-05T20:18:22.395Z,10.57
2018-11-05T20:20:53.056Z,10.68
2018-11-05T20:23:23.699Z,10.78
2018-11-05T20:25:54.397Z,10.75
2018-11-05T20:28:25.108Z,10.83
2018-11-05T20:30:55.814Z,10.86
2018-11-05T20:33:26.605Z,10.81
2018-11-05T20:35:57.235Z,10.88
2018-11-05T20:38:28.010Z,10.90
2018-11-05T20:40:58.725Z,11.17
2018-11-05T20:43:29.370Z,11.18
2018-11-05T20:46:00.179Z,11.15
2018-11-05T20:48:30.836Z,11.29
2018-11-05T20:51:01.527Z,11.28
2018-11-05T20:53:32.229Z,11.37
2018-11-05T20:56:03.033Z,11.44
2018-11-05T20:58:33.743Z,11.39
2018-11-05T21:01:04.499Z,11.35
2018-11-05T21:03:35.285Z,11.37
2018-11-05T21:06:06.152Z,11.41
2018-11-05T21:08:38.195Z,11.36
2018-11-05T21:11:08.923Z,11.34
2018-11-05T21:13:39.702Z,11.44
2018-11-05T21:16:10.655Z,11.48
2018-11-05T21:18:41.396Z,11.46
2018-11-05T21:21:12.162Z,11.52
2018-11-05T21:23:42.851Z,11.45
2018-11-05T21:26:13.495Z,11.43
2018-11-05T21:28:44.257Z,11.48
2018-11-05T21:31:14.971Z,11.44
2018-11-05T21:33:45.606Z,11.39
2018-11-05T21:36:16.298Z,11.28
2018-11-05T21:38:46.963Z,11.29
2018-11-05T21:41:17.689Z,11.29
2018-11-05T21:43:48.330Z,11.26
2018-11-05T21:46:19.128Z,11.21
2018-11-05T21:48:49.770Z,11.22
2018-11-05T21:51:20.397Z,11.16
2018-11-05T21:53:51.080Z,11.18
2018-11-05T21:56:21.705Z,11.15
2018-11-05T21:58:52.458Z,11.11
2018-11-05T22:01:24.265Z,11.00
2018-11-05T22:03:55.519Z,11.00
2018-11-05T22:06:26.575Z,10.90
2018-11-05T22:08:57.208Z,10.77
2018-11-05T22:11:28.238Z,10.63
2018-11-05T22:13:59.030Z,10.56
2018-11-05T22:16:29.729Z,10.53
2018-11-05T22:19:00.412Z,10.47
2018-11-05T22:21:31.050Z,10.42
2018-11-05T22:24:01.720Z,10.38
2018-11-05T22:26:32.336Z,10.33
2018-11-05T22:29:03.033Z,10.26
2018-11-05T22:31:33.711Z,10.26
2018-11-05T22:34:04.440Z,10.26
2018-11-05T22:36:35.067Z,10.23
2018-11-05T22:39:07.920Z,10.21
2018-11-05T22:41:38.791Z,10.17
2018-11-05T22:44:09.666Z,10.17
2018-11-05T22:46:40.335Z,10.17
2018-11-05T22:49:10.965Z,10.17
2018-11-05T22:51:41.611Z,10.18
2018-11-05T22:54:12.338Z,10.20
2018-11-05T22:56:42.981Z,10.18
2018-11-05T22:59:13.655Z,10.15
2018-11-05T23:01:49.596Z,10.13
2018-11-05T23:04:20.304Z,10.13
2018-11-05T23:06:51.880Z,10.14
2018-11-05T23:09:23.061Z,10.16
2018-11-05T23:11:53.757Z,10.16
2018-11-05T23:14:24.410Z,10.17
2018-11-05T23:16:55.119Z,10.18
2018-11-05T23:19:25.793Z,10.24
2018-11-05T23:21:56.491Z,10.23
2018-11-05T23:24:27.135Z,10.20
2018-11-05T23:26:57.837Z,10.21
2018-11-05T23:29:28.449Z,10.21
2018-11-05T23:31:59.143Z,10.20
2018-11-05T23:34:29.784Z,10.19
2018-11-05T23:37:00.407Z,10.21
2018-11-05T23:39:31.062Z,10.21
2018-11-05T23:42:01.831Z,10.21
2018-11-05T23:44:32.492Z,10.21
2018-11-05T23:47:03.219Z,10.23
2018-11-05T23:49:33.956Z,10.22
2018-11-05T23:52:04.740Z,10.22
2018-11-05T23:54:35.403Z,10.22
2018-11-05T23:57:06.257Z,10.22
2018-11-05T23:59:36.913Z,10.20
